sensor_id;sensor_type;location;lat;lon;timestamp;P1;durP1;ratioP1;P2;durP2;ratioP2
71048;SDS011;58704;53.358;-6.238;2023-02-16T00:29:42;5.23;;;3.80;;
71048;SDS011;58704;53.358;-6.238;2023-02-16T00:32:09;2.85;;;2.00;;
71048;SDS011;58704;53.358;-6.238;2023-02-16T00:34:37;4.22;;;1.63;;
71048;SDS011;58704;53.358;-6.238;2023-02-16T00:37:05;1.80;;;1.37;;
71048;SDS011;58704;53.358;-6.238;2023-02-16T00:39:33;2.40;;;1.38;;
71048;SDS011;58704;53.358;-6.238;2023-02-16T00:42:04;3.83;;;1.30;;
71048;SDS011;58704;53.358;-6.238;2023-02-16T00:44:35;3.33;;;0.90;;
71048;SDS011;58704;53.358;-6.238;2023-02-16T00:47:28;3.15;;;1.08;;
71048;SDS011;58704;53.358;-6.238;2023-02-16T00:49:51;2.33;;;0.80;;
71048;SDS011;58704;53.358;-6.238;2023-02-16T00:55:01;1.55;;;1.45;;
71048;SDS011;58704;53.358;-6.238;2023-02-16T00:57:32;2.28;;;1.15;;
71048;SDS011;58704;53.358;-6.238;2023-02-16T01:00:00;2.47;;;1.30;;
71048;SDS011;58704;53.358;-6.238;2023-02-16T01:02:31;1.83;;;1.17;;
71048;SDS011;58704;53.358;-6.238;2023-02-16T01:04:56;3.85;;;2.10;;
71048;SDS011;58704;53.358;-6.238;2023-02-16T01:07:22;1.50;;;1.40;;
71048;SDS011;58704;53.358;-6.238;2023-02-16T01:10:06;2.33;;;2.08;;
71048;SDS011;58704;53.358;-6.238;2023-02-16T01:12:50;2.00;;;1.65;;
71048;SDS011;58704;53.358;-6.238;2023-02-16T01:15:16;1.97;;;1.20;;
71048;SDS011;58704;53.358;-6.238;2023-02-16T01:17:43;4.15;;;1.27;;
71048;SDS011;58704;53.358;-6.238;2023-02-16T01:20:19;4.60;;;2.27;;
71048;SDS011;58704;53.358;-6.238;2023-02-16T01:22:46;5.05;;;2.40;;
71048;SDS011;58704;53.358;-6.238;2023-02-16T01:25:12;3.55;;;1.85;;
71048;SDS011;58704;53.358;-6.238;2023-02-16T01:27:39;1.23;;;1.13;;
71048;SDS011;58704;53.358;-6.238;2023-02-16T01:30:06;1.30;;;1.00;;
71048;SDS011;58704;53.358;-6.238;2023-02-16T01:32:36;3.05;;;1.52;;
71048;SDS011;58704;53.358;-6.238;2023-02-16T01:35:02;2.70;;;1.20;;
71048;SDS011;58704;53.358;-6.238;2023-02-16T01:37:28;2.00;;;1.50;;
71048;SDS011;58704;53.358;-6.238;2023-02-16T01:39:54;3.92;;;1.65;;
71048;SDS011;58704;53.358;-6.238;2023-02-16T01:42:43;1.67;;;1.50;;
71048;SDS011;58704;53.358;-6.238;2023-02-16T01:45:14;2.33;;;0.85;;
71048;SDS011;58704;53.358;-6.238;2023-02-16T01:47:50;1.42;;;0.90;;
71048;SDS011;58704;53.358;-6.238;2023-02-16T01:50:19;0.83;;;0.83;;
71048;SDS011;58704;53.358;-6.238;2023-02-16T01:52:56;1.52;;;0.60;;
71048;SDS011;58704;53.358;-6.238;2023-02-16T01:55:27;1.23;;;1.00;;
71048;SDS011;58704;53.358;-6.238;2023-02-16T01:58:37;1.70;;;0.95;;
71048;SDS011;58704;53.358;-6.238;2023-02-16T02:01:51;0.98;;;0.88;;
71048;SDS011;58704;53.358;-6.238;2023-02-16T02:17:51;0.98;;;0.60;;
71048;SDS011;58704;53.358;-6.238;2023-02-16T02:26:48;1.50;;;1.10;;
71048;SDS011;58704;53.358;-6.238;2023-02-16T02:29:39;0.80;;;0.80;;
71048;SDS011;58704;53.358;-6.238;2023-02-16T02:32:22;1.33;;;1.00;;
71048;SDS011;58704;53.358;-6.238;2023-02-16T02:37:44;1.38;;;1.27;;
71048;SDS011;58704;53.358;-6.238;2023-02-16T02:45:42;2.35;;;1.23;;
71048;SDS011;58704;53.358;-6.238;2023-02-16T02:48:19;1.50;;;1.40;;
71048;SDS011;58704;53.358;-6.238;2023-02-16T02:53:37;1.17;;;1.05;;
71048;SDS011;58704;53.358;-6.238;2023-02-16T02:56:05;1.10;;;1.00;;
71048;SDS011;58704;53.358;-6.238;2023-02-16T02:58:50;1.83;;;1.00;;
71048;SDS011;58704;53.358;-6.238;2023-02-16T03:01:39;0.95;;;0.75;;
71048;SDS011;58704;53.358;-6.238;2023-02-16T03:04:06;1.10;;;1.00;;
71048;SDS011;58704;53.358;-6.238;2023-02-16T03:06:33;1.15;;;1.10;;
71048;SDS011;58704;53.358;-6.238;2023-02-16T03:09:05;2.15;;;1.10;;
71048;SDS011;58704;53.358;-6.238;2023-02-16T03:11:32;1.17;;;1.07;;
71048;SDS011;58704;53.358;-6.238;2023-02-16T03:16:52;0.90;;;0.85;;
71048;SDS011;58704;53.358;-6.238;2023-02-16T03:19:39;2.75;;;1.65;;
71048;SDS011;58704;53.358;-6.238;2023-02-16T03:22:24;1.65;;;1.20;;
71048;SDS011;58704;53.358;-6.238;2023-02-16T03:25:11;1.50;;;0.90;;
71048;SDS011;58704;53.358;-6.238;2023-02-16T03:27:59;0.90;;;0.90;;
71048;SDS011;58704;53.358;-6.238;2023-02-16T03:30:44;1.35;;;1.20;;
71048;SDS011;58704;53.358;-6.238;2023-02-16T03:33:17;1.63;;;1.00;;
71048;SDS011;58704;53.358;-6.238;2023-02-16T03:35:49;1.33;;;0.93;;
71048;SDS011;58704;53.358;-6.238;2023-02-16T03:38:24;2.43;;;1.10;;
71048;SDS011;58704;53.358;-6.238;2023-02-16T03:40:52;1.63;;;1.30;;
71048;SDS011;58704;53.358;-6.238;2023-02-16T04:01:21;1.80;;;1.13;;
71048;SDS011;58704;53.358;-6.238;2023-02-16T04:03:47;1.60;;;1.30;;
71048;SDS011;58704;53.358;-6.238;2023-02-16T04:06:12;1.60;;;1.50;;
71048;SDS011;58704;53.358;-6.238;2023-02-16T04:08:38;2.03;;;1.20;;
71048;SDS011;58704;53.358;-6.238;2023-02-16T04:11:03;1.05;;;0.95;;
71048;SDS011;58704;53.358;-6.238;2023-02-16T04:13:52;1.20;;;1.10;;
71048;SDS011;58704;53.358;-6.238;2023-02-16T04:16:17;1.67;;;1.40;;
71048;SDS011;58704;53.358;-6.238;2023-02-16T04:18:43;1.63;;;1.50;;
71048;SDS011;58704;53.358;-6.238;2023-02-16T04:21:09;1.40;;;1.30;;
71048;SDS011;58704;53.358;-6.238;2023-02-16T04:23:35;1.43;;;1.33;;
71048;SDS011;58704;53.358;-6.238;2023-02-16T04:26:00;1.50;;;1.40;;
71048;SDS011;58704;53.358;-6.238;2023-02-16T04:28:26;2.20;;;1.10;;
71048;SDS011;58704;53.358;-6.238;2023-02-16T04:30:51;1.25;;;0.90;;
71048;SDS011;58704;53.358;-6.238;2023-02-16T04:33:17;1.50;;;1.30;;
71048;SDS011;58704;53.358;-6.238;2023-02-16T04:35:42;1.40;;;1.20;;
71048;SDS011;58704;53.358;-6.238;2023-02-16T04:38:08;1.63;;;1.00;;
71048;SDS011;58704;53.358;-6.238;2023-02-16T04:40:33;1.33;;;1.10;;
71048;SDS011;58704;53.358;-6.238;2023-02-16T04:42:59;1.37;;;0.87;;
71048;SDS011;58704;53.358;-6.238;2023-02-16T04:45:25;2.17;;;1.38;;
71048;SDS011;58704;53.358;-6.238;2023-02-16T04:47:51;1.70;;;1.25;;
71048;SDS011;58704;53.358;-6.238;2023-02-16T04:50:17;0.80;;;0.80;;
71048;SDS011;58704;53.358;-6.238;2023-02-16T04:52:42;1.45;;;1.15;;
71048;SDS011;58704;53.358;-6.238;2023-02-16T04:55:08;1.27;;;1.07;;
71048;SDS011;58704;53.358;-6.238;2023-02-16T04:57:35;1.00;;;0.90;;
71048;SDS011;58704;53.358;-6.238;2023-02-16T05:00:03;1.63;;;1.00;;
71048;SDS011;58704;53.358;-6.238;2023-02-16T05:02:30;1.60;;;1.05;;
71048;SDS011;58704;53.358;-6.238;2023-02-16T05:04:56;1.40;;;1.30;;
71048;SDS011;58704;53.358;-6.238;2023-02-16T05:07:22;1.47;;;1.30;;
71048;SDS011;58704;53.358;-6.238;2023-02-16T05:09:47;1.27;;;1.17;;
71048;SDS011;58704;53.358;-6.238;2023-02-16T05:12:13;1.37;;;1.20;;
71048;SDS011;58704;53.358;-6.238;2023-02-16T05:14:57;1.80;;;1.23;;
71048;SDS011;58704;53.358;-6.238;2023-02-16T05:17:23;1.53;;;1.30;;
71048;SDS011;58704;53.358;-6.238;2023-02-16T05:19:51;3.60;;;1.35;;
71048;SDS011;58704;53.358;-6.238;2023-02-16T05:22:19;1.20;;;1.02;;
71048;SDS011;58704;53.358;-6.238;2023-02-16T05:24:45;2.60;;;1.83;;
71048;SDS011;58704;53.358;-6.238;2023-02-16T05:27:12;1.70;;;1.33;;
71048;SDS011;58704;53.358;-6.238;2023-02-16T05:29:39;2.03;;;1.60;;
71048;SDS011;58704;53.358;-6.238;2023-02-16T05:32:05;2.87;;;1.47;;
71048;SDS011;58704;53.358;-6.238;2023-02-16T05:34:31;3.08;;;1.38;;
71048;SDS011;58704;53.358;-6.238;2023-02-16T05:36:56;1.40;;;1.30;;
71048;SDS011;58704;53.358;-6.238;2023-02-16T05:39:22;1.65;;;1.55;;
71048;SDS011;58704;53.358;-6.238;2023-02-16T05:41:47;1.10;;;1.00;;
71048;SDS011;58704;53.358;-6.238;2023-02-16T05:44:15;1.33;;;1.00;;
71048;SDS011;58704;53.358;-6.238;2023-02-16T05:46:42;0.87;;;0.70;;
71048;SDS011;58704;53.358;-6.238;2023-02-16T05:49:07;3.08;;;1.00;;
71048;SDS011;58704;53.358;-6.238;2023-02-16T05:51:34;1.50;;;1.30;;
71048;SDS011;58704;53.358;-6.238;2023-02-16T05:54:01;1.23;;;1.13;;
71048;SDS011;58704;53.358;-6.238;2023-02-16T05:56:27;1.33;;;1.23;;
71048;SDS011;58704;53.358;-6.238;2023-02-16T05:58:53;1.75;;;1.30;;
71048;SDS011;58704;53.358;-6.238;2023-02-16T06:01:19;1.60;;;1.40;;
71048;SDS011;58704;53.358;-6.238;2023-02-16T06:03:44;1.50;;;1.08;;
71048;SDS011;58704;53.358;-6.238;2023-02-16T06:06:10;1.50;;;1.40;;
71048;SDS011;58704;53.358;-6.238;2023-02-16T06:08:36;1.57;;;1.30;;
71048;SDS011;58704;53.358;-6.238;2023-02-16T06:11:02;1.60;;;1.50;;
71048;SDS011;58704;53.358;-6.238;2023-02-16T06:13:32;1.35;;;1.25;;
71048;SDS011;58704;53.358;-6.238;2023-02-16T06:15:58;3.57;;;1.20;;
71048;SDS011;58704;53.358;-6.238;2023-02-16T06:18:25;1.98;;;1.20;;
71048;SDS011;58704;53.358;-6.238;2023-02-16T06:20:50;1.48;;;1.38;;
71048;SDS011;58704;53.358;-6.238;2023-02-16T06:23:17;1.27;;;1.03;;
71048;SDS011;58704;53.358;-6.238;2023-02-16T06:25:43;1.88;;;1.00;;
71048;SDS011;58704;53.358;-6.238;2023-02-16T06:28:09;1.13;;;1.00;;
71048;SDS011;58704;53.358;-6.238;2023-02-16T06:30:35;1.20;;;1.10;;
71048;SDS011;58704;53.358;-6.238;2023-02-16T06:33:01;1.33;;;1.20;;
71048;SDS011;58704;53.358;-6.238;2023-02-16T06:35:28;3.72;;;1.15;;
71048;SDS011;58704;53.358;-6.238;2023-02-16T06:37:53;1.70;;;1.23;;
71048;SDS011;58704;53.358;-6.238;2023-02-16T06:40:21;1.95;;;1.30;;
71048;SDS011;58704;53.358;-6.238;2023-02-16T06:42:49;1.10;;;1.00;;
71048;SDS011;58704;53.358;-6.238;2023-02-16T06:45:15;1.27;;;1.10;;
71048;SDS011;58704;53.358;-6.238;2023-02-16T06:47:40;1.25;;;1.02;;
71048;SDS011;58704;53.358;-6.238;2023-02-16T06:50:06;1.20;;;1.10;;
71048;SDS011;58704;53.358;-6.238;2023-02-16T06:52:34;1.00;;;0.90;;
71048;SDS011;58704;53.358;-6.238;2023-02-16T06:55:00;1.20;;;1.10;;
71048;SDS011;58704;53.358;-6.238;2023-02-16T06:57:28;1.83;;;1.20;;
71048;SDS011;58704;53.358;-6.238;2023-02-16T06:59:54;2.03;;;1.40;;
71048;SDS011;58704;53.358;-6.238;2023-02-16T07:02:20;1.93;;;1.47;;
71048;SDS011;58704;53.358;-6.238;2023-02-16T07:04:47;1.80;;;1.13;;
71048;SDS011;58704;53.358;-6.238;2023-02-16T07:07:13;2.15;;;1.83;;
71048;SDS011;58704;53.358;-6.238;2023-02-16T07:09:40;2.67;;;1.60;;
71048;SDS011;58704;53.358;-6.238;2023-02-16T07:12:05;2.17;;;1.60;;
71048;SDS011;58704;53.358;-6.238;2023-02-16T07:14:31;1.52;;;1.42;;
71048;SDS011;58704;53.358;-6.238;2023-02-16T07:16:57;3.10;;;1.73;;
71048;SDS011;58704;53.358;-6.238;2023-02-16T07:19:27;1.67;;;1.50;;
71048;SDS011;58704;53.358;-6.238;2023-02-16T07:21:56;1.50;;;1.30;;
71048;SDS011;58704;53.358;-6.238;2023-02-16T07:24:22;2.22;;;1.80;;
71048;SDS011;58704;53.358;-6.238;2023-02-16T07:26:47;2.67;;;2.00;;
71048;SDS011;58704;53.358;-6.238;2023-02-16T07:29:16;4.05;;;2.40;;
71048;SDS011;58704;53.358;-6.238;2023-02-16T07:31:41;2.55;;;2.20;;
71048;SDS011;58704;53.358;-6.238;2023-02-16T07:34:07;3.13;;;2.07;;
71048;SDS011;58704;53.358;-6.238;2023-02-16T07:36:33;2.53;;;1.67;;
71048;SDS011;58704;53.358;-6.238;2023-02-16T07:38:58;2.65;;;1.90;;
71048;SDS011;58704;53.358;-6.238;2023-02-16T07:41:24;2.90;;;1.90;;
71048;SDS011;58704;53.358;-6.238;2023-02-16T07:43:49;2.70;;;1.83;;
71048;SDS011;58704;53.358;-6.238;2023-02-16T07:46:15;1.90;;;1.53;;
71048;SDS011;58704;53.358;-6.238;2023-02-16T07:48:40;2.47;;;1.60;;
71048;SDS011;58704;53.358;-6.238;2023-02-16T07:51:07;2.67;;;1.85;;
71048;SDS011;58704;53.358;-6.238;2023-02-16T07:53:33;5.73;;;2.53;;
71048;SDS011;58704;53.358;-6.238;2023-02-16T07:56:00;3.92;;;1.80;;
71048;SDS011;58704;53.358;-6.238;2023-02-16T07:58:26;4.50;;;1.90;;
71048;SDS011;58704;53.358;-6.238;2023-02-16T08:00:55;3.03;;;1.97;;
71048;SDS011;58704;53.358;-6.238;2023-02-16T08:03:22;3.30;;;2.20;;
71048;SDS011;58704;53.358;-6.238;2023-02-16T08:08:20;3.93;;;2.27;;
71048;SDS011;58704;53.358;-6.238;2023-02-16T08:10:45;3.83;;;2.03;;
71048;SDS011;58704;53.358;-6.238;2023-02-16T08:13:11;3.67;;;2.43;;
71048;SDS011;58704;53.358;-6.238;2023-02-16T08:15:36;6.07;;;2.93;;
71048;SDS011;58704;53.358;-6.238;2023-02-16T08:18:02;4.17;;;2.70;;
71048;SDS011;58704;53.358;-6.238;2023-02-16T08:20:27;6.65;;;3.08;;
71048;SDS011;58704;53.358;-6.238;2023-02-16T08:22:53;6.57;;;3.37;;
71048;SDS011;58704;53.358;-6.238;2023-02-16T08:25:18;7.78;;;3.90;;
71048;SDS011;58704;53.358;-6.238;2023-02-16T08:27:44;6.83;;;3.97;;
71048;SDS011;58704;53.358;-6.238;2023-02-16T08:30:09;6.53;;;3.97;;
71048;SDS011;58704;53.358;-6.238;2023-02-16T08:32:37;7.25;;;4.32;;
71048;SDS011;58704;53.358;-6.238;2023-02-16T08:35:05;6.85;;;4.47;;
71048;SDS011;58704;53.358;-6.238;2023-02-16T08:37:31;7.13;;;4.53;;
71048;SDS011;58704;53.358;-6.238;2023-02-16T08:39:57;6.18;;;4.20;;
71048;SDS011;58704;53.358;-6.238;2023-02-16T08:42:24;8.20;;;4.57;;
71048;SDS011;58704;53.358;-6.238;2023-02-16T08:44:51;10.05;;;4.03;;
71048;SDS011;58704;53.358;-6.238;2023-02-16T08:47:17;4.87;;;3.47;;
71048;SDS011;58704;53.358;-6.238;2023-02-16T08:49:44;6.25;;;3.67;;
71048;SDS011;58704;53.358;-6.238;2023-02-16T08:52:10;5.03;;;4.00;;
71048;SDS011;58704;53.358;-6.238;2023-02-16T08:54:36;9.43;;;3.70;;
71048;SDS011;58704;53.358;-6.238;2023-02-16T08:57:02;6.55;;;4.47;;
71048;SDS011;58704;53.358;-6.238;2023-02-16T08:59:28;6.13;;;3.97;;
71048;SDS011;58704;53.358;-6.238;2023-02-16T09:01:54;6.87;;;3.53;;
71048;SDS011;58704;53.358;-6.238;2023-02-16T09:04:20;6.13;;;3.35;;
71048;SDS011;58704;53.358;-6.238;2023-02-16T09:06:46;9.93;;;4.45;;
71048;SDS011;58704;53.358;-6.238;2023-02-16T09:09:14;7.70;;;4.97;;
71048;SDS011;58704;53.358;-6.238;2023-02-16T09:11:40;8.93;;;4.95;;
71048;SDS011;58704;53.358;-6.238;2023-02-16T09:14:06;8.68;;;4.57;;
71048;SDS011;58704;53.358;-6.238;2023-02-16T09:16:33;10.73;;;5.17;;
71048;SDS011;58704;53.358;-6.238;2023-02-16T09:19:02;10.25;;;5.18;;
71048;SDS011;58704;53.358;-6.238;2023-02-16T09:21:28;10.32;;;5.65;;
71048;SDS011;58704;53.358;-6.238;2023-02-16T09:23:58;10.00;;;5.50;;
71048;SDS011;58704;53.358;-6.238;2023-02-16T09:26:29;10.02;;;4.50;;
71048;SDS011;58704;53.358;-6.238;2023-02-16T09:28:56;8.82;;;4.43;;
71048;SDS011;58704;53.358;-6.238;2023-02-16T09:31:28;9.20;;;4.23;;
71048;SDS011;58704;53.358;-6.238;2023-02-16T09:34:02;8.50;;;4.30;;
71048;SDS011;58704;53.358;-6.238;2023-02-16T09:36:31;8.85;;;4.63;;
71048;SDS011;58704;53.358;-6.238;2023-02-16T09:38:57;8.02;;;4.00;;
71048;SDS011;58704;53.358;-6.238;2023-02-16T09:41:31;7.07;;;3.97;;
71048;SDS011;58704;53.358;-6.238;2023-02-16T09:44:01;7.15;;;3.78;;
71048;SDS011;58704;53.358;-6.238;2023-02-16T09:46:27;9.98;;;3.67;;
71048;SDS011;58704;53.358;-6.238;2023-02-16T09:48:54;8.90;;;3.78;;
71048;SDS011;58704;53.358;-6.238;2023-02-16T09:53:54;6.67;;;3.43;;
71048;SDS011;58704;53.358;-6.238;2023-02-16T10:01:46;4.20;;;2.63;;
71048;SDS011;58704;53.358;-6.238;2023-02-16T10:09:55;5.35;;;3.10;;
71048;SDS011;58704;53.358;-6.238;2023-02-16T10:12:26;8.65;;;3.25;;
71048;SDS011;58704;53.358;-6.238;2023-02-16T10:14:58;5.90;;;3.08;;
71048;SDS011;58704;53.358;-6.238;2023-02-16T10:20:11;3.70;;;2.33;;
71048;SDS011;58704;53.358;-6.238;2023-02-16T10:22:43;5.05;;;3.03;;
71048;SDS011;58704;53.358;-6.238;2023-02-16T10:27:49;3.10;;;2.13;;
71048;SDS011;58704;53.358;-6.238;2023-02-16T10:30:22;2.42;;;1.77;;
71048;SDS011;58704;53.358;-6.238;2023-02-16T10:32:55;2.53;;;1.70;;
71048;SDS011;58704;53.358;-6.238;2023-02-16T10:35:31;3.05;;;1.80;;
71048;SDS011;58704;53.358;-6.238;2023-02-16T10:43:42;3.78;;;1.40;;
71048;SDS011;58704;53.358;-6.238;2023-02-16T10:46:24;2.25;;;1.30;;
71048;SDS011;58704;53.358;-6.238;2023-02-16T10:48:55;5.25;;;1.40;;
71048;SDS011;58704;53.358;-6.238;2023-02-16T10:51:21;1.73;;;1.17;;
71048;SDS011;58704;53.358;-6.238;2023-02-16T10:53:53;1.60;;;1.00;;
71048;SDS011;58704;53.358;-6.238;2023-02-16T10:59:21;5.85;;;1.90;;
71048;SDS011;58704;53.358;-6.238;2023-02-16T11:01:49;5.50;;;1.40;;
71048;SDS011;58704;53.358;-6.238;2023-02-16T11:07:17;4.10;;;1.40;;
71048;SDS011;58704;53.358;-6.238;2023-02-16T11:09:52;1.73;;;1.20;;
71048;SDS011;58704;53.358;-6.238;2023-02-16T11:17:46;1.30;;;1.20;;
71048;SDS011;58704;53.358;-6.238;2023-02-16T11:20:25;2.88;;;1.30;;
71048;SDS011;58704;53.358;-6.238;2023-02-16T11:25:41;1.40;;;1.30;;
71048;SDS011;58704;53.358;-6.238;2023-02-16T11:28:24;1.97;;;1.50;;
71048;SDS011;58704;53.358;-6.238;2023-02-16T11:31:14;1.23;;;1.00;;
71048;SDS011;58704;53.358;-6.238;2023-02-16T11:33:41;2.95;;;1.63;;
71048;SDS011;58704;53.358;-6.238;2023-02-16T11:46:56;6.03;;;1.63;;
71048;SDS011;58704;53.358;-6.238;2023-02-16T11:49:36;2.10;;;1.50;;
71048;SDS011;58704;53.358;-6.238;2023-02-16T11:55:01;2.90;;;1.40;;
71048;SDS011;58704;53.358;-6.238;2023-02-16T11:57:31;1.23;;;1.13;;
71048;SDS011;58704;53.358;-6.238;2023-02-16T11:59:58;1.52;;;1.27;;
71048;SDS011;58704;53.358;-6.238;2023-02-16T12:05:57;2.75;;;1.23;;
71048;SDS011;58704;53.358;-6.238;2023-02-16T12:13:56;1.63;;;1.30;;
71048;SDS011;58704;53.358;-6.238;2023-02-16T12:19:32;3.95;;;1.45;;
71048;SDS011;58704;53.358;-6.238;2023-02-16T12:22:37;2.50;;;1.48;;
71048;SDS011;58704;53.358;-6.238;2023-02-16T12:25:18;1.60;;;1.20;;
71048;SDS011;58704;53.358;-6.238;2023-02-16T12:28:38;2.80;;;1.65;;
71048;SDS011;58704;53.358;-6.238;2023-02-16T12:33:34;1.52;;;1.10;;
71048;SDS011;58704;53.358;-6.238;2023-02-16T12:36:37;1.50;;;1.10;;
71048;SDS011;58704;53.358;-6.238;2023-02-16T12:39:16;3.03;;;1.45;;
71048;SDS011;58704;53.358;-6.238;2023-02-16T12:41:56;5.90;;;1.73;;
71048;SDS011;58704;53.358;-6.238;2023-02-16T12:44:43;2.00;;;1.27;;
71048;SDS011;58704;53.358;-6.238;2023-02-16T12:47:12;2.45;;;1.30;;
71048;SDS011;58704;53.358;-6.238;2023-02-16T12:49:54;3.95;;;1.42;;
71048;SDS011;58704;53.358;-6.238;2023-02-16T12:52:30;3.20;;;1.90;;
71048;SDS011;58704;53.358;-6.238;2023-02-16T12:55:17;3.55;;;1.50;;
71048;SDS011;58704;53.358;-6.238;2023-02-16T13:00:44;3.70;;;1.73;;
71048;SDS011;58704;53.358;-6.238;2023-02-16T13:05:45;2.65;;;1.23;;
71048;SDS011;58704;53.358;-6.238;2023-02-16T13:08:17;3.80;;;1.40;;
71048;SDS011;58704;53.358;-6.238;2023-02-16T13:11:16;2.60;;;1.70;;
71048;SDS011;58704;53.358;-6.238;2023-02-16T13:13:48;3.88;;;1.60;;
71048;SDS011;58704;53.358;-6.238;2023-02-16T13:16:17;18.25;;;3.13;;
71048;SDS011;58704;53.358;-6.238;2023-02-16T13:18:48;17.38;;;2.63;;
71048;SDS011;58704;53.358;-6.238;2023-02-16T13:45:33;2.25;;;1.35;;
71048;SDS011;58704;53.358;-6.238;2023-02-16T13:48:11;12.87;;;2.67;;
71048;SDS011;58704;53.358;-6.238;2023-02-16T13:50:38;6.97;;;1.77;;
71048;SDS011;58704;53.358;-6.238;2023-02-16T13:53:39;7.15;;;2.28;;
71048;SDS011;58704;53.358;-6.238;2023-02-16T13:58:41;5.03;;;1.52;;
71048;SDS011;58704;53.358;-6.238;2023-02-16T14:04:03;7.68;;;2.20;;
71048;SDS011;58704;53.358;-6.238;2023-02-16T14:06:51;13.73;;;2.20;;
71048;SDS011;58704;53.358;-6.238;2023-02-16T14:09:51;8.02;;;2.05;;
71048;SDS011;58704;53.358;-6.238;2023-02-16T14:12:17;5.73;;;2.20;;
71048;SDS011;58704;53.358;-6.238;2023-02-16T14:14:53;5.22;;;1.50;;
71048;SDS011;58704;53.358;-6.238;2023-02-16T14:19:50;3.20;;;1.10;;
71048;SDS011;58704;53.358;-6.238;2023-02-16T14:22:20;5.70;;;1.30;;
71048;SDS011;58704;53.358;-6.238;2023-02-16T14:24:58;1.85;;;1.45;;
71048;SDS011;58704;53.358;-6.238;2023-02-16T14:30:47;3.37;;;1.40;;
71048;SDS011;58704;53.358;-6.238;2023-02-16T14:33:18;1.90;;;1.27;;
71048;SDS011;58704;53.358;-6.238;2023-02-16T14:41:05;1.95;;;1.30;;
71048;SDS011;58704;53.358;-6.238;2023-02-16T14:43:44;9.47;;;1.57;;
71048;SDS011;58704;53.358;-6.238;2023-02-16T14:57:19;6.43;;;1.50;;
71048;SDS011;58704;53.358;-6.238;2023-02-16T14:59:53;3.50;;;1.30;;
71048;SDS011;58704;53.358;-6.238;2023-02-16T15:02:28;4.68;;;1.60;;
71048;SDS011;58704;53.358;-6.238;2023-02-16T15:05:18;1.45;;;1.15;;
71048;SDS011;58704;53.358;-6.238;2023-02-16T15:07:46;2.63;;;1.42;;
71048;SDS011;58704;53.358;-6.238;2023-02-16T15:10:14;2.30;;;1.40;;
71048;SDS011;58704;53.358;-6.238;2023-02-16T15:12:45;4.63;;;1.20;;
71048;SDS011;58704;53.358;-6.238;2023-02-16T15:15:16;1.58;;;1.23;;
71048;SDS011;58704;53.358;-6.238;2023-02-16T15:17:45;3.95;;;1.38;;
71048;SDS011;58704;53.358;-6.238;2023-02-16T15:23:00;3.77;;;1.20;;
71048;SDS011;58704;53.358;-6.238;2023-02-16T15:25:32;2.97;;;1.50;;
71048;SDS011;58704;53.358;-6.238;2023-02-16T15:28:03;3.75;;;1.50;;
71048;SDS011;58704;53.358;-6.238;2023-02-16T15:30:47;2.45;;;1.42;;
71048;SDS011;58704;53.358;-6.238;2023-02-16T15:35:59;4.57;;;1.97;;
71048;SDS011;58704;53.358;-6.238;2023-02-16T15:38:26;5.20;;;1.65;;
71048;SDS011;58704;53.358;-6.238;2023-02-16T15:41:13;3.97;;;1.90;;
71048;SDS011;58704;53.358;-6.238;2023-02-16T15:43:54;2.20;;;1.55;;
71048;SDS011;58704;53.358;-6.238;2023-02-16T15:49:09;2.77;;;1.80;;
71048;SDS011;58704;53.358;-6.238;2023-02-16T15:51:47;3.97;;;1.60;;
71048;SDS011;58704;53.358;-6.238;2023-02-16T15:54:26;4.65;;;1.80;;
71048;SDS011;58704;53.358;-6.238;2023-02-16T15:56:57;2.03;;;1.63;;
71048;SDS011;58704;53.358;-6.238;2023-02-16T15:59:36;4.57;;;1.95;;
71048;SDS011;58704;53.358;-6.238;2023-02-16T16:05:08;2.00;;;1.65;;
71048;SDS011;58704;53.358;-6.238;2023-02-16T16:07:53;2.72;;;1.60;;
71048;SDS011;58704;53.358;-6.238;2023-02-16T16:13:00;5.28;;;1.80;;
71048;SDS011;58704;53.358;-6.238;2023-02-16T16:15:28;3.77;;;1.60;;
71048;SDS011;58704;53.358;-6.238;2023-02-16T16:17:54;2.08;;;1.60;;
71048;SDS011;58704;53.358;-6.238;2023-02-16T16:20:28;3.45;;;1.70;;
71048;SDS011;58704;53.358;-6.238;2023-02-16T16:22:56;5.35;;;1.80;;
71048;SDS011;58704;53.358;-6.238;2023-02-16T16:27:55;2.93;;;1.60;;
71048;SDS011;58704;53.358;-6.238;2023-02-16T16:33:05;5.40;;;1.73;;
71048;SDS011;58704;53.358;-6.238;2023-02-16T16:38:06;2.60;;;1.67;;
71048;SDS011;58704;53.358;-6.238;2023-02-16T16:40:48;2.83;;;1.55;;
71048;SDS011;58704;53.358;-6.238;2023-02-16T16:43:15;2.13;;;1.67;;
71048;SDS011;58704;53.358;-6.238;2023-02-16T16:45:46;1.75;;;1.60;;
71048;SDS011;58704;53.358;-6.238;2023-02-16T16:50:38;3.17;;;1.80;;
71048;SDS011;58704;53.358;-6.238;2023-02-16T16:55:54;2.42;;;1.70;;
71048;SDS011;58704;53.358;-6.238;2023-02-16T16:58:22;3.72;;;1.85;;
71048;SDS011;58704;53.358;-6.238;2023-02-16T17:00:48;1.57;;;1.40;;
71048;SDS011;58704;53.358;-6.238;2023-02-16T17:03:16;3.63;;;1.47;;
71048;SDS011;58704;53.358;-6.238;2023-02-16T17:05:43;3.70;;;1.65;;
71048;SDS011;58704;53.358;-6.238;2023-02-16T17:08:09;3.55;;;1.50;;
71048;SDS011;58704;53.358;-6.238;2023-02-16T17:10:36;2.10;;;1.30;;
71048;SDS011;58704;53.358;-6.238;2023-02-16T17:13:03;2.80;;;1.30;;
71048;SDS011;58704;53.358;-6.238;2023-02-16T17:18:33;2.03;;;1.25;;
71048;SDS011;58704;53.358;-6.238;2023-02-16T17:20:59;4.77;;;1.40;;
71048;SDS011;58704;53.358;-6.238;2023-02-16T17:23:24;2.08;;;1.30;;
71048;SDS011;58704;53.358;-6.238;2023-02-16T17:25:50;3.40;;;1.80;;
71048;SDS011;58704;53.358;-6.238;2023-02-16T17:28:16;5.28;;;1.60;;
71048;SDS011;58704;53.358;-6.238;2023-02-16T17:30:43;3.55;;;2.03;;
71048;SDS011;58704;53.358;-6.238;2023-02-16T17:33:08;2.90;;;2.00;;
71048;SDS011;58704;53.358;-6.238;2023-02-16T17:35:35;2.80;;;2.22;;
71048;SDS011;58704;53.358;-6.238;2023-02-16T17:38:10;5.03;;;2.80;;
71048;SDS011;58704;53.358;-6.238;2023-02-16T17:40:38;4.07;;;2.28;;
71048;SDS011;58704;53.358;-6.238;2023-02-16T17:43:14;6.40;;;2.17;;
71048;SDS011;58704;53.358;-6.238;2023-02-16T17:45:41;4.22;;;2.00;;
71048;SDS011;58704;53.358;-6.238;2023-02-16T17:48:09;3.42;;;2.50;;
71048;SDS011;58704;53.358;-6.238;2023-02-16T17:50:37;10.83;;;4.53;;
71048;SDS011;58704;53.358;-6.238;2023-02-16T17:53:02;8.85;;;3.17;;
71048;SDS011;58704;53.358;-6.238;2023-02-16T17:55:28;2.30;;;1.70;;
71048;SDS011;58704;53.358;-6.238;2023-02-16T17:57:54;4.57;;;2.50;;
71048;SDS011;58704;53.358;-6.238;2023-02-16T18:00:22;7.18;;;4.40;;
71048;SDS011;58704;53.358;-6.238;2023-02-16T18:02:47;4.20;;;2.90;;
71048;SDS011;58704;53.358;-6.238;2023-02-16T18:05:13;4.70;;;2.20;;
71048;SDS011;58704;53.358;-6.238;2023-02-16T18:07:43;4.17;;;2.17;;
71048;SDS011;58704;53.358;-6.238;2023-02-16T18:10:13;4.70;;;2.35;;
71048;SDS011;58704;53.358;-6.238;2023-02-16T18:12:40;3.72;;;1.90;;
71048;SDS011;58704;53.358;-6.238;2023-02-16T18:15:06;3.20;;;1.60;;
71048;SDS011;58704;53.358;-6.238;2023-02-16T18:17:32;4.43;;;1.85;;
71048;SDS011;58704;53.358;-6.238;2023-02-16T18:19:59;6.27;;;2.47;;
71048;SDS011;58704;53.358;-6.238;2023-02-16T18:22:24;4.10;;;2.28;;
71048;SDS011;58704;53.358;-6.238;2023-02-16T18:24:50;2.97;;;1.90;;
71048;SDS011;58704;53.358;-6.238;2023-02-16T18:27:15;5.87;;;2.70;;
71048;SDS011;58704;53.358;-6.238;2023-02-16T18:29:42;3.28;;;2.30;;
71048;SDS011;58704;53.358;-6.238;2023-02-16T18:32:07;4.87;;;2.60;;
71048;SDS011;58704;53.358;-6.238;2023-02-16T18:34:33;7.00;;;2.60;;
71048;SDS011;58704;53.358;-6.238;2023-02-16T18:36:59;6.17;;;3.33;;
71048;SDS011;58704;53.358;-6.238;2023-02-16T18:39:24;4.43;;;2.60;;
71048;SDS011;58704;53.358;-6.238;2023-02-16T18:41:50;2.87;;;2.43;;
71048;SDS011;58704;53.358;-6.238;2023-02-16T18:44:15;4.97;;;2.73;;
71048;SDS011;58704;53.358;-6.238;2023-02-16T18:46:41;4.27;;;1.90;;
71048;SDS011;58704;53.358;-6.238;2023-02-16T18:49:06;3.70;;;2.00;;
71048;SDS011;58704;53.358;-6.238;2023-02-16T18:51:32;4.30;;;2.00;;